Time;durP1;ratioP1;P1;durP2;ratioP2;P2;SDS_P1;SDS_P2;PMS_P1;PMS_P2;Temp;Humidity;BMP_temperature;BMP_pressure;BME280_temperature;BME280_humidity;BME280_pressure;Samples;Min_cycle;Max_cycle;Signal;HPM_P1;HPM_P2
2021/11/07 00:03:48;;;;;;;29.20;14.35;;;;;;;4.46;94.84;101396.69;20824037;28;20041;-70
2021/11/07 00:13:52;;;;;;;32.05;14.43;;;;;;;4.40;93.60;101365.38;20824605;28;20144;-69
2021/11/07 00:24:01;;;;;;;28.88;14.48;;;;;;;4.43;94.43;101370.66;20824015;28;20045;-70
2021/11/07 01:04:54;;;;;;;46.00;18.35;;;;;;;4.66;95.36;101322.81;20820482;28;20049;-70
2021/11/07 01:14:57;;;;;;;43.08;17.98;;;;;;;4.70;94.74;101301.28;20820135;28;20498;-70
2021/11/07 01:25:01;;;;;;;46.75;18.73;;;;;;;4.73;94.88;101275.41;20818883;28;20045;-70
2021/11/07 01:35:17;;;;;;;41.10;18.00;;;;;;;4.81;95.05;101284.22;20818278;28;20053;-69
2021/11/07 01:45:25;;;;;;;39.35;17.80;;;;;;;4.91;94.55;101248.09;20818502;28;20549;-70
2021/11/07 01:55:32;;;;;;;40.03;18.77;;;;;;;4.88;94.97;101216.03;20818553;28;20053;-70
2021/11/07 02:05:33;;;;;;;34.30;15.48;;;;;;;4.94;93.67;101217.03;20818011;28;20499;-70
2021/11/07 02:15:35;;;;;;;30.67;15.38;;;;;;;4.87;94.18;101224.69;20814656;28;20104;-68
2021/11/07 02:25:38;;;;;;;33.13;15.63;;;;;;;4.96;94.38;101230.91;20815942;28;20045;-69
2021/11/07 02:35:40;;;;;;;36.80;16.17;;;;;;;4.98;94.34;101244.78;20816344;28;20049;-70
2021/11/07 02:45:41;;;;;;;40.08;17.63;;;;;;;5.05;94.32;101218.13;20815612;28;20100;-70
2021/11/07 02:55:44;;;;;;;47.75;18.88;;;;;;;5.09;95.53;101227.72;20815510;28;20100;-70
2021/11/07 03:05:45;;;;;;;51.55;20.40;;;;;;;5.14;95.46;101241.66;20824196;28;20613;-71
2021/11/07 03:15:46;;;;;;;60.38;22.80;;;;;;;5.16;95.09;101224.38;20828974;28;20564;-70
2021/11/07 03:25:56;;;;;;;66.30;24.38;;;;;;;5.21;95.65;101224.47;20827359;28;20127;-70
2021/11/07 03:36:01;;;;;;;61.03;23.90;;;;;;;5.17;95.65;101212.28;20826902;28;20469;-69
2021/11/07 03:46:03;;;;;;;53.90;23.50;;;;;;;5.15;94.65;101225.25;20826690;28;20107;-69
2021/11/07 03:56:04;;;;;;;52.65;23.83;;;;;;;5.20;94.39;101225.34;20825448;28;20099;-70
2021/11/07 04:06:06;;;;;;;50.92;23.63;;;;;;;5.12;94.59;101204.41;20824630;28;20493;-70
2021/11/07 04:16:09;;;;;;;52.63;25.00;;;;;;;5.26;93.47;101161.41;20824122;28;20518;-69
2021/11/07 04:26:11;;;;;;;53.10;24.88;;;;;;;5.17;93.70;101150.84;20822635;28;20491;-71
2021/11/07 04:36:13;;;;;;;51.53;25.42;;;;;;;5.17;93.87;101144.78;20822041;28;20049;-70
2021/11/07 04:46:17;;;;;;;56.08;24.15;;;;;;;5.17;93.66;101142.19;20822055;28;20045;-70
2021/11/07 04:56:18;;;;;;;58.23;25.43;;;;;;;5.16;93.94;101128.34;20820931;28;20104;-69
2021/11/07 05:06:21;;;;;;;53.42;25.52;;;;;;;5.09;93.32;101121.31;20819617;28;20045;-70
2021/11/07 05:16:22;;;;;;;56.35;24.70;;;;;;;5.11;92.95;101093.63;20819561;28;20057;-69
2021/11/07 05:26:24;;;;;;;55.97;25.65;;;;;;;5.17;93.85;101052.19;20816951;28;20046;-70
2021/11/07 05:36:26;;;;;;;58.78;25.00;;;;;;;5.21;93.53;101037.56;20817849;28;20099;-70
2021/11/07 05:46:27;;;;;;;62.42;24.45;;;;;;;5.25;92.34;101021.19;20817996;28;20525;-70
2021/11/07 05:56:29;;;;;;;56.67;24.33;;;;;;;5.11;92.70;100995.88;20817304;28;20446;-69
2021/11/07 06:06:31;;;;;;;52.33;21.67;;;;;;;5.10;93.38;100963.00;20816633;28;20053;-69
2021/11/07 06:16:33;;;;;;;55.78;23.13;;;;;;;5.07;93.06;100985.41;20816986;28;20061;-69
2021/11/07 06:26:34;;;;;;;61.40;25.70;;;;;;;5.07;93.01;100999.25;20815731;28;20096;-70
2021/11/07 06:36:36;;;;;;;58.15;23.90;;;;;;;5.09;93.20;100991.53;20819370;28;20494;-69
2021/11/07 06:46:38;;;;;;;59.63;23.73;;;;;;;5.01;92.66;100974.94;20831806;28;20103;-70
2021/11/07 06:56:40;;;;;;;54.38;23.10;;;;;;;5.01;93.12;100961.97;20831258;28;20050;-71
2021/11/07 07:06:42;;;;;;;52.03;21.20;;;;;;;5.01;91.96;100974.94;20830102;28;20053;-71
2021/11/07 07:27:13;;;;;;;49.85;22.00;;;;;;;5.15;91.30;100991.63;20827673;28;20112;-69
2021/11/07 07:37:15;;;;;;;47.75;21.88;;;;;;;5.20;90.82;100992.56;20826287;28;20099;-69
2021/11/07 07:47:17;;;;;;;45.45;21.50;;;;;;;5.21;90.12;101009.88;20826110;28;20046;-69
2021/11/07 07:57:19;;;;;;;49.97;20.02;;;;;;;5.32;90.00;100977.19;20809432;28;20107;-69
2021/11/07 08:07:20;;;;;;;40.95;19.33;;;;;;;5.43;89.21;100966.06;20781498;28;20042;-69
2021/11/07 08:17:22;;;;;;;45.60;20.15;;;;;;;5.64;88.15;100987.13;20790218;28;20103;-69
2021/11/07 08:27:24;;;;;;;42.63;19.70;;;;;;;5.54;88.34;101014.72;20775132;28;20050;-69
2021/11/07 08:37:34;;;;;;;44.03;19.88;;;;;;;5.70;87.91;100997.63;20773798;28;20049;-69
2021/11/07 09:08:18;;;;;;;30.80;14.73;;;;;;;6.12;87.21;100970.44;20812777;28;20556;-72
2021/11/07 09:18:20;;;;;;;29.25;14.45;;;;;;;6.20;86.08;100953.22;20741922;28;20471;-70
2021/11/07 09:38:32;;;;;;;30.42;14.98;;;;;;;6.39;84.38;100973.38;20729340;28;20503;-71
2021/11/07 09:48:37;;;;;;;30.42;14.00;;;;;;;6.59;84.80;100924.13;20730151;28;20054;-70
2021/11/07 09:58:40;;;;;;;;;;;;;;;6.76;84.54;100939.03;20728690;28;20054;-70
2021/11/07 10:08:42;;;;;;;31.77;15.63;;;;;;;6.94;86.41;100915.72;20727449;28;19937;-70
2021/11/07 10:19:01;;;;;;;30.13;15.85;;;;;;;6.86;84.25;100920.03;20818023;28;20038;-71
2021/11/07 10:29:06;;;;;;;29.23;14.48;;;;;;;6.91;83.36;100919.19;20796483;28;20052;-71
2021/11/07 11:00:22;;;;;;;;;;;;;;;7.33;84.38;100894.31;20815495;28;20053;-71
2021/11/07 11:10:33;;;;;;;24.63;12.80;;;;;;;7.04;87.07;100888.03;20822530;28;19979;-70
2021/11/07 11:21:03;;;;;;;21.65;11.82;;;;;;;7.08;89.36;100881.97;20823459;28;20045;-71
2021/11/07 11:41:46;;;;;;;23.38;12.13;;;;;;;7.18;91.45;100861.19;20811305;28;20050;-71
2021/11/07 12:02:42;;;;;;;19.77;10.95;;;;;;;7.31;91.07;100836.09;20819100;28;20049;-71
2021/11/07 12:12:52;;;;;;;20.33;10.60;;;;;;;7.43;90.95;100827.47;20793701;28;20416;-71
2021/11/07 12:23:17;;;;;;;22.38;11.35;;;;;;;7.41;91.06;100837.88;20735641;28;20573;-71
2021/11/07 12:33:22;;;;;;;21.30;11.10;;;;;;;7.54;91.53;100822.31;20733728;28;20099;-71
2021/11/07 12:43:30;;;;;;;18.90;10.27;;;;;;;7.53;91.51;100825.78;20734503;28;20100;-71
2021/11/07 12:53:56;;;;;;;18.08;10.30;;;;;;;7.77;90.41;100799.78;20732974;28;20104;-73
2021/11/07 13:04:02;;;;;;;16.98;10.00;;;;;;;7.60;91.87;100791.03;20732056;28;20046;-71
2021/11/07 13:14:15;;;;;;;16.98;9.75;;;;;;;7.76;91.46;100785.00;20767641;28;20049;-71
2021/11/07 13:34:26;;;;;;;15.00;8.75;;;;;;;7.77;91.06;100773.72;20808239;28;20049;-72
2021/11/07 13:44:36;;;;;;;11.15;6.80;;;;;;;7.84;91.21;100754.59;20810952;28;20434;-71
2021/11/07 13:54:39;;;;;;;20.13;9.00;;;;;;;7.67;92.18;100751.97;20810646;28;20099;-73
2021/11/07 14:04:42;;;;;;;12.98;7.75;;;;;;;7.61;92.62;100749.34;20808001;28;20042;-74
2021/11/07 14:15:01;;;;;;;14.25;7.93;;;;;;;7.71;91.45;100752.84;20800473;28;20057;-74
2021/11/07 14:25:08;;;;;;;12.23;7.05;;;;;;;7.65;91.54;100756.31;20807098;28;20045;-75
2021/11/07 14:55:32;;;;;;;12.93;7.32;;;;;;;7.59;92.26;100778.88;20806627;28;20057;-70
2021/11/07 15:25:47;;;;;;;14.02;7.97;;;;;;;7.58;93.28;100756.31;20818730;28;20096;-70
2021/11/07 15:35:55;;;;;;;22.13;12.60;;;;;;;7.56;93.69;100763.22;20814692;28;20053;-69
2021/11/07 15:46:08;;;;;;;14.88;9.25;;;;;;;7.61;93.95;100770.19;20811653;28;20050;-69
2021/11/07 15:56:19;;;;;;;15.80;10.18;;;;;;;7.67;93.60;100774.56;20818482;28;20079;-68
2021/11/07 16:06:30;;;;;;;14.43;8.77;;;;;;;7.65;93.84;100781.50;20817399;28;20049;-69
2021/11/07 16:16:44;;;;;;;13.75;9.02;;;;;;;7.64;94.65;100795.41;20787860;28;20045;-69
2021/11/07 16:26:49;;;;;;;19.30;12.60;;;;;;;7.66;94.51;100801.47;20817128;28;20477;-69
2021/11/07 16:36:52;;;;;;;17.05;10.85;;;;;;;7.82;94.33;100813.69;20816300;28;20107;-69
2021/11/07 16:46:57;;;;;;;19.23;12.02;;;;;;;7.79;93.48;100800.66;20813159;28;20099;-69
2021/11/07 16:56:58;;;;;;;;;;;;;;;7.54;94.85;100785.81;20813449;28;20049;-69
2021/11/07 17:07:48;;;;;;;16.50;9.02;;;;;;;7.45;95.92;100807.50;20813779;28;19925;-69
2021/11/07 17:17:34;;;;;;;15.77;9.83;;;;;;;7.27;96.27;100790.06;20804583;28;20052;-69
2021/11/07 17:37:56;;;;;;;18.67;11.00;;;;;;;7.15;97.56;100788.28;20811213;28;20049;-69
2021/11/07 17:58:19;;;;;;;13.05;7.50;;;;;;;7.07;97.87;100783.91;20811207;28;20054;-69
2021/11/07 18:18:22;;;;;;;10.55;6.57;;;;;;;7.06;97.86;100784.78;20739578;28;20053;-69
2021/11/07 18:28:24;;;;;;;23.77;12.27;;;;;;;6.94;98.50;100789.03;20728137;28;20046;-69
2021/11/07 18:38:27;;;;;;;25.50;12.15;;;;;;;6.95;98.86;100800.34;20740670;28;20655;-69
2021/11/07 18:48:28;;;;;;;15.13;9.55;;;;;;;6.96;98.96;100822.03;20742704;28;20490;-70
2021/11/07 18:58:30;;;;;;;17.85;10.32;;;;;;;6.91;99.40;100814.19;20743150;28;20057;-70
2021/11/07 19:08:32;;;;;;;23.08;13.15;;;;;;;6.83;99.16;100821.94;20741546;28;20459;-70
2021/11/07 19:18:34;;;;;;;18.05;10.40;;;;;;;6.92;99.73;100832.41;20813716;28;20049;-70
2021/11/07 19:28:36;;;;;;;14.60;9.07;;;;;;;7.14;99.21;100858.59;20822186;28;20095;-71
2021/11/07 19:38:38;;;;;;;16.33;9.70;;;;;;;7.08;99.33;100858.53;20820714;28;20053;-70
2021/11/07 19:58:51;;;;;;;13.13;8.15;;;;;;;7.18;98.94;100839.50;20819253;28;20107;-70
2021/11/07 20:19:03;;;;;;;15.10;9.10;;;;;;;7.24;98.80;100855.19;20740697;28;20129;-71
2021/11/07 20:29:09;;;;;;;15.82;9.60;;;;;;;7.20;98.77;100856.88;20735986;28;20410;-71
2021/11/07 20:39:12;;;;;;;17.50;9.40;;;;;;;7.16;98.87;100865.53;20732758;28;20499;-70
2021/11/07 20:49:48;;;;;;;15.50;9.55;;;;;;;7.10;98.66;100856.84;20733315;28;20111;-70
2021/11/07 21:09:58;;;;;;;15.17;8.13;;;;;;;6.83;98.54;100874.00;20733613;28;20042;-70
2021/11/07 21:30:21;;;;;;;13.25;8.73;;;;;;;6.58;99.21;100888.56;20812631;28;20050;-71
2021/11/07 21:50:24;;;;;;;16.95;9.07;;;;;;;6.36;99.69;100895.28;20810244;28;20089;-70
2021/11/07 22:00:26;;;;;;;16.20;10.75;;;;;;;6.35;99.68;100906.56;20809905;28;20099;-70
2021/11/07 22:10:27;;;;;;;18.00;10.45;;;;;;;6.19;99.96;100904.69;20810050;28;20053;-71
2021/11/07 22:20:40;;;;;;;18.50;10.88;;;;;;;6.05;100.00;100901.06;20808211;28;20045;-71
2021/11/07 22:30:42;;;;;;;16.58;10.00;;;;;;;5.91;100.00;100908.66;20807588;28;20045;-71
2021/11/07 22:40:46;;;;;;;24.17;14.48;;;;;;;5.69;100.00;100928.31;20808267;28;20096;-72
2021/11/07 23:11:05;;;;;;;23.63;13.90;;;;;;;5.51;100.00;100920.28;20738002;28;20053;-71
2021/11/07 23:21:06;;;;;;;21.38;12.35;;;;;;;5.38;100.00;100917.53;20739617;28;20050;-70
2021/11/07 23:31:09;;;;;;;23.00;11.73;;;;;;;5.28;100.00;100931.25;20744517;28;20046;-71
2021/11/07 23:41:27;;;;;;;21.50;11.55;;;;;;;5.30;100.00;100933.84;20746362;28;20107;-72
